Time;durP1;ratioP1;P1;durP2;ratioP2;P2;SDS_P1;SDS_P2;PMS_P1;PMS_P2;Temp;Humidity;BMP_temperature;BMP_pressure;BME280_temperature;BME280_humidity;BME280_pressure;Samples;Min_cycle;Max_cycle;Signal;HPM_P1;HPM_P2
2023/03/23 00:09:58;;;;;;;20.50;14.70;;;;;;;8.11;94.04;98806.52;435602;1254;139068;-63
2023/03/23 00:20:06;;;;;;;21.60;15.80;;;;;;;8.14;94.06;98807.92;435124;1254;139110;-62
2023/03/23 00:30:12;;;;;;;18.50;14.60;;;;;;;8.11;93.92;98808.14;435385;1254;141091;-63
2023/03/23 00:40:18;;;;;;;17.70;13.40;;;;;;;8.08;94.20;98802.21;435387;1255;140533;-61
2023/03/23 00:50:23;;;;;;;20.10;13.90;;;;;;;7.97;94.08;98801.02;435315;1254;139154;-61
2023/03/23 01:00:28;;;;;;;17.30;13.40;;;;;;;7.92;94.22;98798.02;438505;1254;139311;-61
2023/03/23 01:10:33;;;;;;;15.90;13.80;;;;;;;7.97;94.58;98793.86;434887;1256;145242;-63
2023/03/23 01:20:39;;;;;;;15.90;12.30;;;;;;;8.02;94.51;98782.38;435532;1255;139644;-62
2023/03/23 01:30:43;;;;;;;17.00;12.80;;;;;;;8.03;94.57;98778.11;435292;1254;139994;-61
2023/03/23 01:40:48;;;;;;;21.00;13.90;;;;;;;8.03;94.69;98783.70;435193;1254;140032;-62
2023/03/23 01:50:58;;;;;;;16.50;12.40;;;;;;;7.92;94.50;98782.52;435444;1258;139030;-61
2023/03/23 02:01:06;;;;;;;17.10;12.40;;;;;;;7.80;94.72;98773.52;435791;1259;139714;-63
2023/03/23 02:11:19;;;;;;;16.00;13.70;;;;;;;7.69;94.88;98774.95;435731;1254;139534;-61
2023/03/23 02:21:54;;;;;;;19.40;14.10;;;;;;;7.55;95.23;98769.39;435400;1254;140084;-62
2023/03/23 02:32:22;;;;;;;18.40;13.80;;;;;;;7.46;95.21;98777.05;437319;1255;140343;-62
2023/03/23 02:42:31;;;;;;;17.30;12.40;;;;;;;7.27;95.18;98767.34;435002;1257;140129;-62
2023/03/23 02:52:38;;;;;;;16.40;12.30;;;;;;;7.14;95.53;98769.17;436585;1259;139869;-63
2023/03/23 03:02:46;;;;;;;18.60;12.10;;;;;;;7.05;95.78;98774.29;435661;1260;140334;-62
2023/03/23 03:12:56;;;;;;;19.60;11.90;;;;;;;6.91;95.72;98772.84;435323;1260;140127;-62
2023/03/23 03:23:02;;;;;;;14.60;12.00;;;;;;;6.68;96.01;98761.55;435230;1256;139526;-62
2023/03/23 03:33:07;;;;;;;15.50;11.80;;;;;;;6.66;96.38;98753.36;434795;1260;139365;-62
2023/03/23 03:43:11;;;;;;;15.70;10.90;;;;;;;6.57;96.65;98748.48;434991;1254;140247;-62
2023/03/23 03:53:16;;;;;;;16.60;10.80;;;;;;;6.52;96.95;98741.14;435011;1258;140548;-61
2023/03/23 04:03:21;;;;;;;11.60;9.20;;;;;;;6.55;96.97;98747.74;435160;1255;139318;-63
2023/03/23 04:13:26;;;;;;;13.40;10.90;;;;;;;6.58;97.16;98743.70;435487;1254;140237;-63
2023/03/23 04:23:34;;;;;;;13.00;10.70;;;;;;;6.65;97.25;98741.36;435812;1258;140254;-62
2023/03/23 04:33:40;;;;;;;13.80;9.90;;;;;;;6.73;97.53;98739.48;435415;1254;139055;-63
2023/03/23 04:43:45;;;;;;;13.80;9.40;;;;;;;6.82;97.74;98731.11;434923;1256;138954;-63
2023/03/23 04:53:50;;;;;;;14.00;9.80;;;;;;;6.90;97.59;98718.29;434753;1256;140302;-63
2023/03/23 05:03:55;;;;;;;12.10;8.50;;;;;;;7.05;97.65;98709.52;434890;1256;140038;-61
2023/03/23 05:14:00;;;;;;;11.20;8.70;;;;;;;7.36;97.85;98707.06;435013;1259;139286;-62
2023/03/23 05:24:06;;;;;;;10.90;8.90;;;;;;;7.71;97.42;98696.73;434924;1255;142772;-61
2023/03/23 05:34:11;;;;;;;11.00;7.60;;;;;;;8.08;97.08;98702.83;435846;1259;140066;-62
2023/03/23 05:44:16;;;;;;;9.70;7.80;;;;;;;8.42;96.14;98704.04;434982;1256;140303;-63
2023/03/23 05:54:21;;;;;;;10.50;8.00;;;;;;;8.64;95.41;98708.80;434815;1256;139574;-62
2023/03/23 06:04:26;;;;;;;9.70;7.30;;;;;;;8.78;95.04;98712.75;435098;1254;139212;-61
2023/03/23 06:14:31;;;;;;;17.50;12.90;;;;;;;8.96;94.64;98718.29;435383;1255;139043;-61
2023/03/23 06:24:36;;;;;;;12.90;9.90;;;;;;;9.21;94.20;98708.96;434304;1256;141651;-62
2023/03/23 06:34:43;;;;;;;13.50;10.10;;;;;;;9.52;93.62;98704.79;434659;1256;139630;-62
2023/03/23 06:44:47;;;;;;;10.20;8.70;;;;;;;9.90;92.97;98710.08;435105;1260;139540;-60
2023/03/23 06:54:53;;;;;;;12.80;9.20;;;;;;;10.28;92.14;98717.31;434184;1258;139471;-63
2023/03/23 07:04:57;;;;;;;16.60;11.40;;;;;;;10.86;91.17;98715.89;435168;1257;140083;-63
2023/03/23 07:15:02;;;;;;;8.50;7.70;;;;;;;12.39;89.89;98709.66;435255;1260;139373;-63
2023/03/23 07:25:09;;;;;;;13.10;9.90;;;;;;;14.08;86.49;98703.57;434780;1256;139783;-62
2023/03/23 07:35:13;;;;;;;9.40;7.10;;;;;;;15.51;83.20;98700.89;435403;1258;139292;-62
2023/03/23 07:45:18;;;;;;;8.00;6.60;;;;;;;19.77;77.27;98689.77;435992;1259;138658;-63
2023/03/23 07:55:24;;;;;;;9.40;6.30;;;;;;;20.57;70.85;98674.48;435012;1259;139078;-62
2023/03/23 08:05:29;;;;;;;6.40;5.80;;;;;;;19.73;67.51;98668.63;435148;1256;138376;-63
2023/03/23 08:15:37;;;;;;;7.10;6.40;;;;;;;19.15;66.26;98668.96;435521;1256;138825;-63
2023/03/23 08:25:42;;;;;;;7.20;4.10;;;;;;;19.95;64.79;98655.81;435473;1256;141244;-63
2023/03/23 08:35:54;;;;;;;5.50;4.10;;;;;;;19.20;55.90;98659.15;435411;1256;138675;-63
2023/03/23 08:45:59;;;;;;;6.60;3.10;;;;;;;18.23;54.68;98662.55;434876;1256;138727;-62
2023/03/23 08:56:09;;;;;;;7.80;4.20;;;;;;;17.77;54.90;98656.17;435498;1256;139766;-63
2023/03/23 09:06:14;;;;;;;4.50;4.00;;;;;;;19.28;54.55;98639.30;435082;1257;140041;-63
2023/03/23 09:16:18;;;;;;;3.90;2.50;;;;;;;20.43;51.96;98630.41;434989;1256;139292;-62
2023/03/23 09:26:23;;;;;;;3.40;3.10;;;;;;;20.55;50.42;98624.93;435110;1254;138369;-62
2023/03/23 09:36:31;;;;;;;3.20;2.40;;;;;;;20.76;49.63;98621.17;434506;1260;139567;-61
2023/03/23 09:46:50;;;;;;;5.30;2.10;;;;;;;20.82;48.37;98608.11;434564;1260;139358;-62
2023/03/23 09:56:56;;;;;;;10.70;3.80;;;;;;;20.59;47.28;98604.27;434677;1256;139762;-62
2023/03/23 10:07:09;;;;;;;4.30;2.60;;;;;;;20.18;46.64;98604.31;434851;1260;139111;-62
2023/03/23 10:17:20;;;;;;;2.90;2.30;;;;;;;20.11;46.26;98600.70;435352;1256;139004;-62
2023/03/23 10:27:33;;;;;;;6.00;2.10;;;;;;;19.95;46.02;98595.10;434740;1257;138947;-62
2023/03/23 10:37:41;;;;;;;10.90;3.40;;;;;;;20.00;45.65;98584.79;435280;1256;140352;-62
2023/03/23 10:47:50;;;;;;;6.80;3.30;;;;;;;20.37;45.90;98576.52;435022;1260;139807;-64
2023/03/23 10:58:04;;;;;;;5.50;3.10;;;;;;;20.65;45.17;98572.91;435391;1256;138834;-63
2023/03/23 11:08:15;;;;;;;4.20;2.90;;;;;;;20.57;44.52;98566.71;436076;1257;138719;-64
2023/03/23 11:18:24;;;;;;;6.30;3.40;;;;;;;20.43;44.46;98565.33;435299;1260;139506;-62
2023/03/23 11:28:33;;;;;;;4.20;3.10;;;;;;;19.88;44.67;98578.51;435313;1256;139572;-63
2023/03/23 11:38:39;;;;;;;4.50;2.60;;;;;;;19.44;45.35;98587.73;435152;1260;138511;-63
2023/03/23 11:48:50;;;;;;;4.40;3.30;;;;;;;19.16;45.45;98582.80;434836;1260;139047;-63
2023/03/23 11:58:58;;;;;;;6.50;3.20;;;;;;;18.59;46.41;98588.39;434685;1257;139330;-63
2023/03/23 12:09:16;;;;;;;3.10;2.90;;;;;;;18.33;47.22;98595.95;435087;1260;138482;-62
2023/03/23 12:19:34;;;;;;;3.00;2.20;;;;;;;18.14;46.93;98593.42;435103;1260;139541;-62
2023/03/23 12:29:52;;;;;;;2.70;2.10;;;;;;;17.71;47.78;98601.11;435114;1260;139963;-62
2023/03/23 12:40:33;;;;;;;2.70;2.50;;;;;;;17.57;48.21;98605.22;434833;1260;139515;-62
2023/03/23 12:50:43;;;;;;;5.50;2.40;;;;;;;17.20;48.49;98608.10;434949;1260;138799;-64
2023/03/23 13:00:57;;;;;;;3.20;3.00;;;;;;;17.15;48.83;98603.23;434727;1260;138978;-63
2023/03/23 13:11:09;;;;;;;7.30;2.50;;;;;;;17.58;49.14;98596.05;434747;1260;139391;-63
2023/03/23 13:21:23;;;;;;;3.40;2.30;;;;;;;17.66;48.97;98591.58;434944;1256;138975;-64
2023/03/23 13:31:33;;;;;;;4.20;2.10;;;;;;;17.64;48.55;98592.43;434617;1260;138606;-62
2023/03/23 13:41:49;;;;;;;2.80;1.40;;;;;;;17.22;48.35;98599.58;435022;1260;138829;-62
2023/03/23 13:52:07;;;;;;;3.70;1.40;;;;;;;16.88;48.58;98608.68;435240;1260;139729;-62
2023/03/23 14:02:38;;;;;;;4.80;2.00;;;;;;;16.52;49.15;98614.19;434914;1260;139909;-64
2023/03/23 14:12:46;;;;;;;1.40;1.00;;;;;;;16.24;49.83;98618.67;435690;1260;138935;-64
2023/03/23 14:22:56;;;;;;;5.40;2.10;;;;;;;16.45;50.37;98629.19;435470;1260;139098;-63
2023/03/23 14:33:08;;;;;;;4.10;1.60;;;;;;;16.68;50.44;98632.84;435133;1262;139860;-63
2023/03/23 14:43:16;;;;;;;2.70;2.10;;;;;;;16.67;50.48;98626.92;435467;1258;140279;-63
2023/03/23 14:53:24;;;;;;;5.40;2.20;;;;;;;16.50;50.90;98623.42;435389;1260;139163;-63
2023/03/23 15:03:36;;;;;;;2.90;1.40;;;;;;;16.46;51.44;98627.73;438561;1259;139119;-62
2023/03/23 15:13:46;;;;;;;4.00;2.40;;;;;;;16.31;51.61;98622.55;440591;1257;196109;-63
2023/03/23 15:23:50;;;;;;;2.40;1.90;;;;;;;16.09;52.00;98616.79;435692;1257;140713;-64
2023/03/23 15:34:05;;;;;;;3.00;1.60;;;;;;;15.98;52.19;98623.08;435156;1260;139116;-62
2023/03/23 15:44:22;;;;;;;4.10;2.50;;;;;;;15.75;52.79;98628.12;434366;1260;140000;-64
2023/03/23 15:54:32;;;;;;;6.70;1.80;;;;;;;15.60;53.08;98646.54;438514;1257;139024;-63
2023/03/23 16:04:37;;;;;;;3.80;1.40;;;;;;;15.43;53.23;98649.48;441264;1257;139638;-62
2023/03/23 16:14:42;;;;;;;2.60;2.20;;;;;;;15.26;53.75;98654.02;435179;1259;139879;-63
2023/03/23 16:24:48;;;;;;;2.10;1.90;;;;;;;14.99;54.26;98655.72;435379;1258;139752;-63
2023/03/23 16:34:54;;;;;;;2.40;1.50;;;;;;;14.69;55.23;98669.48;435392;1257;141449;-66
2023/03/23 16:45:00;;;;;;;6.50;2.10;;;;;;;14.35;55.92;98666.99;435251;1257;139570;-63
2023/03/23 16:55:09;;;;;;;3.60;2.10;;;;;;;13.97;56.97;98666.16;435168;1257;140171;-63
2023/03/23 17:05:16;;;;;;;2.60;2.10;;;;;;;13.63;57.71;98662.95;435314;1260;138284;-62
2023/03/23 17:15:24;;;;;;;5.40;3.20;;;;;;;13.39;58.65;98674.57;435656;1257;139525;-63
2023/03/23 17:25:30;;;;;;;9.20;3.90;;;;;;;13.28;59.31;98680.94;435303;1258;139797;-63
2023/03/23 17:35:36;;;;;;;9.70;4.00;;;;;;;13.16;59.83;98697.31;435274;1256;139675;-63
2023/03/23 17:45:43;;;;;;;10.90;6.60;;;;;;;13.08;60.46;98701.40;434682;1257;140517;-63
2023/03/23 17:55:52;;;;;;;12.80;6.50;;;;;;;12.97;60.89;98709.88;434634;1257;139456;-63
2023/03/23 18:06:02;;;;;;;17.70;12.30;;;;;;;12.90;61.37;98712.95;434727;1259;139147;-63
2023/03/23 18:16:09;;;;;;;7.70;6.90;;;;;;;12.85;61.85;98713.53;435418;1258;139942;-62
2023/03/23 18:26:16;;;;;;;9.20;6.60;;;;;;;12.78;62.24;98716.48;434831;1260;139130;-62
2023/03/23 18:36:24;;;;;;;16.80;10.90;;;;;;;12.69;62.73;98727.27;435011;1257;138316;-63
2023/03/23 18:46:31;;;;;;;15.70;10.60;;;;;;;12.63;63.06;98743.73;434682;1260;139489;-62
2023/03/23 18:56:37;;;;;;;10.80;8.60;;;;;;;12.54;63.40;98736.72;439216;1259;139067;-71
2023/03/23 19:06:43;;;;;;;13.40;8.90;;;;;;;12.46;63.86;98734.82;441184;1254;139287;-72
2023/03/23 19:16:49;;;;;;;9.10;5.30;;;;;;;12.47;64.23;98731.23;439756;1257;139718;-72
2023/03/23 19:26:55;;;;;;;6.60;5.30;;;;;;;12.51;64.70;98739.50;440366;1256;139073;-73
2023/03/23 19:37:03;;;;;;;8.70;5.00;;;;;;;12.54;65.29;98740.46;440625;1256;140988;-70
2023/03/23 19:47:15;;;;;;;7.00;3.20;;;;;;;12.60;65.55;98732.89;439191;1256;140634;-72
2023/03/23 19:57:22;;;;;;;5.10;3.20;;;;;;;12.68;65.25;98749.25;438973;1256;139166;-72
2023/03/23 20:07:28;;;;;;;5.50;4.00;;;;;;;12.75;65.01;98755.34;443352;1255;138919;-72
2023/03/23 20:17:35;;;;;;;4.20;3.70;;;;;;;12.83;64.77;98750.46;440308;1259;139080;-72
2023/03/23 20:27:42;;;;;;;4.10;2.80;;;;;;;12.87;64.60;98739.52;438575;1260;140043;-73
2023/03/23 20:37:49;;;;;;;7.90;3.10;;;;;;;12.90;64.46;98742.14;438364;1257;140036;-73
2023/03/23 20:47:55;;;;;;;4.60;2.90;;;;;;;12.88;64.63;98745.27;437842;1257;139832;-72
2023/03/23 20:58:01;;;;;;;6.80;4.80;;;;;;;12.82;64.75;98749.19;437937;1258;140388;-74
2023/03/23 21:08:07;;;;;;;4.40;3.90;;;;;;;12.69;65.07;98764.11;437841;1256;139648;-72
2023/03/23 21:18:13;;;;;;;6.10;4.60;;;;;;;12.55;65.46;98759.53;437900;1256;140091;-73
2023/03/23 21:28:19;;;;;;;6.50;4.80;;;;;;;12.40;66.04;98758.80;437793;1255;141237;-73
2023/03/23 21:38:26;;;;;;;8.80;5.90;;;;;;;12.27;66.54;98754.45;438205;1257;139637;-73
2023/03/23 21:48:32;;;;;;;8.30;6.60;;;;;;;12.00;67.01;98757.73;437925;1259;139451;-72
2023/03/23 21:58:39;;;;;;;9.90;7.40;;;;;;;11.64;67.58;98756.83;438154;1255;140076;-72
2023/03/23 22:08:46;;;;;;;15.10;8.60;;;;;;;11.20;68.29;98769.73;437877;1259;139623;-74
2023/03/23 22:18:53;;;;;;;12.00;8.80;;;;;;;10.85;69.07;98773.93;437887;1256;140434;-72
2023/03/23 22:29:01;;;;;;;12.00;8.30;;;;;;;10.52;69.77;98770.13;437947;1256;139646;-73
2023/03/23 22:39:07;;;;;;;10.10;7.00;;;;;;;10.18;70.63;98769.17;438022;1256;140464;-73
2023/03/23 22:49:13;;;;;;;9.20;6.70;;;;;;;9.97;71.22;98769.55;438067;1259;139802;-72
2023/03/23 22:59:20;;;;;;;10.90;5.70;;;;;;;9.75;71.68;98772.55;437937;1259;140037;-72
2023/03/23 23:09:26;;;;;;;13.60;6.10;;;;;;;9.60;72.27;98774.85;437930;1254;139243;-74
2023/03/23 23:19:32;;;;;;;7.90;5.80;;;;;;;9.41;72.70;98786.84;437440;1259;140009;-72
2023/03/23 23:29:39;;;;;;;10.10;6.30;;;;;;;9.24;73.35;98792.05;437994;1254;139915;-73
2023/03/23 23:39:45;;;;;;;9.60;6.90;;;;;;;9.02;73.64;98794.45;437788;1259;139501;-72
2023/03/23 23:49:51;;;;;;;11.10;7.50;;;;;;;8.76;74.29;98788.96;437910;1254;139303;-73
2023/03/23 23:59:56;;;;;;;9.60;7.90;;;;;;;8.52;74.84;98780.63;437923;1254;139287;-75
